Time;durP1;ratioP1;P1;durP2;ratioP2;P2;SDS_P1;SDS_P2;PMS_P1;PMS_P2;Temp;Humidity;BMP_temperature;BMP_pressure;BME280_temperature;BME280_humidity;BME280_pressure;Samples;Min_cycle;Max_cycle;Signal;HPM_P1;HPM_P2
2022/05/07 00:01:54;;;;;;;27.08;17.95;;;9.80;99.90;;;;;;5044284;28;20040;-67
2022/05/07 00:04:20;;;;;;;31.70;19.80;;;9.80;99.90;;;;;;5045517;28;20136;-67
2022/05/07 00:06:45;;;;;;;33.53;20.88;;;9.80;99.90;;;;;;5042045;28;20418;-67
2022/05/07 00:09:11;;;;;;;37.42;21.90;;;9.90;99.90;;;;;;5045011;28;20148;-67
2022/05/07 00:11:36;;;;;;;35.67;21.55;;;9.90;99.90;;;;;;5045266;28;20044;-67
2022/05/07 00:14:02;;;;;;;35.75;21.67;;;9.90;99.90;;;;;;5045886;28;20048;-68
2022/05/07 00:19:11;;;;;;;38.67;22.77;;;9.90;99.90;;;;;;5043384;28;20752;-67
2022/05/07 00:21:37;;;;;;;40.38;22.52;;;9.90;99.90;;;;;;5046304;28;20163;-67
2022/05/07 00:24:03;;;;;;;38.67;21.38;;;10.00;99.90;;;;;;5030984;28;20744;-67
2022/05/07 00:26:29;;;;;;;37.88;21.73;;;10.00;99.90;;;;;;5047403;28;20045;-67
2022/05/07 00:28:54;;;;;;;45.28;23.52;;;10.10;99.90;;;;;;5047144;28;20155;-67
2022/05/07 00:31:20;;;;;;;37.63;22.45;;;10.10;99.90;;;;;;5047039;28;20532;-67
2022/05/07 00:33:46;;;;;;;35.05;20.40;;;10.10;99.90;;;;;;5044224;28;20087;-68
2022/05/07 00:36:11;;;;;;;39.28;23.38;;;10.10;99.90;;;;;;5056254;28;20477;-67
2022/05/07 00:38:37;;;;;;;49.00;25.40;;;10.10;99.90;;;;;;5040890;28;20036;-67
2022/05/07 00:41:03;;;;;;;45.97;26.08;;;10.20;99.90;;;;;;5044266;28;20504;-67
2022/05/07 00:43:41;;;;;;;49.00;26.52;;;10.20;99.90;;;;;;5044948;28;20040;-67
2022/05/07 00:46:08;;;;;;;39.90;23.58;;;10.20;99.90;;;;;;5058193;28;20037;-67
2022/05/07 00:48:33;;;;;;;47.38;26.17;;;10.20;99.90;;;;;;5040737;28;20045;-67
2022/05/07 00:53:46;;;;;;;47.55;26.17;;;10.30;99.90;;;;;;5060661;28;20086;-67
2022/05/07 00:56:12;;;;;;;46.50;26.60;;;10.30;99.90;;;;;;5043586;28;20367;-67
2022/05/07 00:58:38;;;;;;;46.30;28.08;;;10.30;99.90;;;;;;5044129;28;20091;-67
2022/05/07 01:01:04;;;;;;;46.92;27.85;;;10.40;99.90;;;;;;5042490;28;20426;-67
2022/05/07 01:03:30;;;;;;;51.28;28.50;;;10.40;99.90;;;;;;5044706;28;20041;-67
2022/05/07 01:05:56;;;;;;;44.45;26.35;;;10.40;99.90;;;;;;5044768;28;20483;-67
2022/05/07 01:08:22;;;;;;;45.97;28.05;;;10.40;99.90;;;;;;5050244;28;20341;-67
2022/05/07 01:10:48;;;;;;;48.47;28.58;;;10.40;99.90;;;;;;5043334;28;20037;-67
2022/05/07 01:13:14;;;;;;;53.25;27.98;;;10.40;99.90;;;;;;5043379;28;20168;-67
2022/05/07 01:15:44;;;;;;;49.35;26.55;;;10.50;99.90;;;;;;5042863;28;20124;-67
2022/05/07 01:18:11;;;;;;;47.90;27.45;;;10.50;99.90;;;;;;5047220;28;20055;-67
2022/05/07 01:20:36;;;;;;;45.42;26.48;;;10.50;99.90;;;;;;5045383;28;20032;-67
2022/05/07 01:23:02;;;;;;;46.53;26.98;;;10.50;99.90;;;;;;5044878;28;20091;-67
2022/05/07 01:25:28;;;;;;;45.63;27.20;;;10.60;99.90;;;;;;5042791;28;20108;-67
2022/05/07 01:27:53;;;;;;;45.92;27.90;;;10.60;99.90;;;;;;5044960;28;20591;-67
2022/05/07 01:30:19;;;;;;;50.67;29.33;;;10.60;99.90;;;;;;5044586;28;20385;-67
2022/05/07 01:32:44;;;;;;;51.88;29.00;;;10.60;99.90;;;;;;5042511;28;20053;-67
2022/05/07 01:35:10;;;;;;;50.90;28.00;;;10.60;99.90;;;;;;5042929;28;20055;-67
2022/05/07 01:37:36;;;;;;;51.60;29.50;;;10.70;99.90;;;;;;5044815;28;20110;-67
2022/05/07 01:40:02;;;;;;;53.58;29.45;;;10.70;99.90;;;;;;5042535;28;20077;-68
2022/05/07 01:42:28;;;;;;;53.53;29.48;;;10.70;99.90;;;;;;5030858;28;20068;-67
2022/05/07 01:44:53;;;;;;;53.72;28.58;;;10.70;99.90;;;;;;5046151;28;20354;-67
2022/05/07 01:50:03;;;;;;;45.22;27.02;;;10.70;99.90;;;;;;5044736;28;20056;-67
2022/05/07 01:52:29;;;;;;;48.35;28.67;;;10.80;99.90;;;;;;5044135;28;20494;-67
2022/05/07 01:54:54;;;;;;;50.20;28.48;;;10.80;99.90;;;;;;5045018;28;20049;-67
2022/05/07 01:57:20;;;;;;;50.67;29.73;;;10.80;99.90;;;;;;5031531;28;20062;-67
2022/05/07 01:59:45;;;;;;;50.45;28.65;;;10.80;99.90;;;;;;5042029;28;20044;-66
2022/05/07 02:02:11;;;;;;;54.03;29.80;;;10.90;99.90;;;;;;5045175;28;20045;-67
2022/05/07 02:04:36;;;;;;;52.75;30.42;;;10.90;99.90;;;;;;5044803;28;20045;-67
2022/05/07 02:07:02;;;;;;;52.03;30.65;;;10.90;99.90;;;;;;5046852;28;20049;-68
2022/05/07 02:09:27;;;;;;;51.30;29.27;;;11.00;99.90;;;;;;5045980;28;20388;-67
2022/05/07 02:11:53;;;;;;;48.30;29.55;;;11.00;99.90;;;;;;5044157;28;20475;-67
2022/05/07 02:14:18;;;;;;;48.05;29.90;;;11.00;99.90;;;;;;5039641;28;20155;-67
2022/05/07 02:16:44;;;;;;;47.63;28.85;;;11.00;99.90;;;;;;5043957;28;20632;-67
2022/05/07 02:19:09;;;;;;;50.85;30.10;;;11.00;99.90;;;;;;5042356;28;20046;-67
2022/05/07 02:21:35;;;;;;;51.63;30.80;;;11.00;99.90;;;;;;5044004;28;20076;-67
2022/05/07 02:24:00;;;;;;;52.83;30.38;;;11.00;99.90;;;;;;5043122;28;20124;-68
2022/05/07 02:26:26;;;;;;;45.97;28.02;;;11.00;99.90;;;;;;5044349;28;20478;-67
2022/05/07 02:28:51;;;;;;;52.55;30.83;;;11.00;99.90;;;;;;5039503;28;20041;-67
2022/05/07 02:31:17;;;;;;;54.75;31.45;;;11.10;99.90;;;;;;5041928;28;20148;-67
2022/05/07 02:33:42;;;;;;;52.70;30.90;;;11.00;99.90;;;;;;5042193;28;20120;-67
2022/05/07 02:36:08;;;;;;;50.90;29.98;;;11.00;99.90;;;;;;5048114;28;20074;-67
2022/05/07 02:38:33;;;;;;;49.90;29.45;;;11.00;99.90;;;;;;5027072;28;20399;-67
2022/05/07 02:43:43;;;;;;;55.08;32.50;;;11.00;99.90;;;;;;5039086;28;20130;-67
2022/05/07 02:46:10;;;;;;;57.50;32.13;;;11.00;99.90;;;;;;5039864;28;20048;-67
2022/05/07 02:48:36;;;;;;;55.55;31.40;;;11.00;99.90;;;;;;5042191;28;20072;-67
2022/05/07 02:51:05;;;;;;;48.58;28.42;;;11.00;99.90;;;;;;5045278;28;20084;-67
2022/05/07 02:53:30;;;;;;;52.58;28.85;;;11.00;99.90;;;;;;5045354;28;20044;-67
2022/05/07 02:55:56;;;;;;;47.97;27.73;;;11.00;99.90;;;;;;5042851;28;20037;-66
2022/05/07 02:58:21;;;;;;;49.78;28.85;;;11.00;99.90;;;;;;5043597;28;20484;-67
2022/05/07 03:00:49;;;;;;;54.53;29.42;;;11.00;99.90;;;;;;5041838;28;20033;-67
2022/05/07 03:03:15;;;;;;;50.25;29.60;;;10.90;99.90;;;;;;5039760;28;20048;-67
2022/05/07 03:05:40;;;;;;;50.65;29.88;;;10.90;99.90;;;;;;5059484;28;20049;-67
2022/05/07 03:08:06;;;;;;;54.20;29.88;;;10.90;99.90;;;;;;5040785;28;20045;-67
2022/05/07 03:10:32;;;;;;;51.10;30.90;;;10.90;99.90;;;;;;5025794;28;20119;-67
2022/05/07 03:12:58;;;;;;;59.70;32.72;;;10.90;99.90;;;;;;5047441;28;20041;-67
2022/05/07 03:15:24;;;;;;;55.42;33.17;;;10.90;99.90;;;;;;5042102;28;20135;-67
2022/05/07 03:17:49;;;;;;;54.63;33.03;;;10.90;99.90;;;;;;5040730;28;20040;-67
2022/05/07 03:20:17;;;;;;;59.08;33.40;;;10.90;99.90;;;;;;5040973;28;20029;-67
2022/05/07 03:22:44;;;;;;;55.97;32.95;;;10.90;99.90;;;;;;5046988;28;20124;-68
2022/05/07 03:25:10;;;;;;;63.63;34.28;;;10.90;99.90;;;;;;5052044;28;20037;-68
2022/05/07 03:27:36;;;;;;;69.70;35.00;;;10.90;99.90;;;;;;5039904;28;20040;-68
2022/05/07 03:30:01;;;;;;;57.75;33.10;;;10.90;99.90;;;;;;5042155;28;20068;-68
2022/05/07 03:32:28;;;;;;;53.10;32.85;;;10.90;99.90;;;;;;5029225;28;20059;-68
2022/05/07 03:34:53;;;;;;;58.60;33.25;;;10.90;99.90;;;;;;5039438;28;20259;-67
2022/05/07 03:37:19;;;;;;;53.03;32.33;;;10.90;99.90;;;;;;5042631;28;20514;-67
2022/05/07 03:39:44;;;;;;;56.53;32.28;;;11.00;99.90;;;;;;5040886;28;20045;-67
2022/05/07 03:42:10;;;;;;;56.78;33.28;;;10.90;99.90;;;;;;5042066;28;20132;-67
2022/05/07 03:44:35;;;;;;;57.58;33.90;;;10.90;99.90;;;;;;5043440;28;20052;-67
2022/05/07 03:47:01;;;;;;;63.90;34.17;;;11.00;99.90;;;;;;5041515;28;20106;-67
2022/05/07 03:49:27;;;;;;;61.28;35.45;;;10.90;99.90;;;;;;5041766;28;20122;-67
2022/05/07 03:54:36;;;;;;;58.83;35.00;;;11.00;99.90;;;;;;5039986;28;20487;-67
2022/05/07 03:57:02;;;;;;;59.83;33.25;;;11.00;99.90;;;;;;5043238;28;20030;-67
2022/05/07 03:59:27;;;;;;;58.35;33.42;;;11.00;99.90;;;;;;5042370;28;20078;-67
2022/05/07 04:01:53;;;;;;;63.63;35.50;;;11.00;99.90;;;;;;5043815;28;20044;-67
2022/05/07 04:04:18;;;;;;;62.47;35.35;;;11.00;99.90;;;;;;5041724;28;20511;-67
2022/05/07 04:06:44;;;;;;;65.88;36.17;;;11.00;99.90;;;;;;5040374;28;20049;-67
2022/05/07 04:09:09;;;;;;;55.60;31.48;;;11.00;99.90;;;;;;5041258;28;20044;-68
2022/05/07 04:11:35;;;;;;;57.50;33.00;;;11.10;99.90;;;;;;5043917;28;20155;-67
2022/05/07 04:14:00;;;;;;;53.10;30.27;;;11.00;99.90;;;;;;5026026;28;20752;-67
2022/05/07 04:16:26;;;;;;;59.67;33.42;;;11.00;99.90;;;;;;5040650;28;20124;-68
2022/05/07 04:18:51;;;;;;;60.72;33.90;;;10.90;99.90;;;;;;5041459;28;20037;-67
2022/05/07 04:21:17;;;;;;;62.05;35.50;;;10.90;99.90;;;;;;5051294;28;20041;-67
2022/05/07 04:23:42;;;;;;;59.60;35.25;;;11.00;99.90;;;;;;5040846;28;20041;-67
2022/05/07 04:26:08;;;;;;;58.08;33.55;;;10.90;99.90;;;;;;5043249;28;20055;-67
2022/05/07 04:28:33;;;;;;;68.68;35.92;;;11.00;99.90;;;;;;5045735;28;20405;-67
2022/05/07 04:30:59;;;;;;;59.25;33.45;;;11.00;99.90;;;;;;5043747;28;20156;-67
2022/05/07 04:33:26;;;;;;;63.35;34.75;;;11.00;99.90;;;;;;5047347;28;20403;-67
2022/05/07 04:35:51;;;;;;;63.92;34.92;;;11.00;99.90;;;;;;5046563;28;20499;-67
2022/05/07 04:38:17;;;;;;;58.42;33.95;;;11.10;99.90;;;;;;5042615;28;20127;-67
2022/05/07 04:40:42;;;;;;;59.60;33.63;;;11.10;99.90;;;;;;5041577;28;20076;-67
2022/05/07 04:43:08;;;;;;;58.88;33.75;;;11.20;99.90;;;;;;5045969;28;20069;-67
2022/05/07 04:45:34;;;;;;;57.53;32.83;;;11.20;99.90;;;;;;5046860;28;20095;-67
2022/05/07 04:47:59;;;;;;;60.40;34.25;;;11.20;99.90;;;;;;5043536;28;20044;-67
2022/05/07 04:50:25;;;;;;;62.05;35.08;;;11.30;99.90;;;;;;5044035;28;20041;-67
2022/05/07 04:52:51;;;;;;;62.08;34.95;;;11.30;99.90;;;;;;5044641;28;20053;-67
2022/05/07 04:55:16;;;;;;;68.30;38.63;;;11.40;99.90;;;;;;5055495;28;20041;-67
2022/05/07 04:57:42;;;;;;;69.55;37.67;;;11.40;99.90;;;;;;5044869;28;20058;-66
2022/05/07 05:00:08;;;;;;;64.28;37.08;;;11.40;99.90;;;;;;5041663;28;21484;-67
2022/05/07 05:02:34;;;;;;;63.33;37.20;;;11.50;99.90;;;;;;5046538;28;20427;-67
2022/05/07 05:04:59;;;;;;;61.45;37.08;;;11.50;99.90;;;;;;5043225;28;20052;-67
2022/05/07 05:07:25;;;;;;;70.28;38.22;;;11.50;99.90;;;;;;5044851;28;20033;-67
2022/05/07 05:09:50;;;;;;;71.47;39.47;;;11.50;99.90;;;;;;5042826;28;20033;-67
2022/05/07 05:12:17;;;;;;;71.13;39.97;;;11.60;99.90;;;;;;5042398;28;20126;-67
2022/05/07 05:15:01;;;;;;;70.55;39.88;;;11.60;99.90;;;;;;5043650;28;20476;-67
2022/05/07 05:17:28;;;;;;;68.55;39.35;;;11.60;99.90;;;;;;5044089;28;20438;-68
2022/05/07 05:19:54;;;;;;;69.80;40.42;;;11.70;99.90;;;;;;5043401;28;20450;-67
2022/05/07 05:22:19;;;;;;;76.80;40.55;;;11.70;99.90;;;;;;5044344;28;20128;-67
2022/05/07 05:24:45;;;;;;;68.72;39.53;;;11.80;99.90;;;;;;5042820;28;20554;-67
2022/05/07 05:27:11;;;;;;;74.13;40.72;;;11.80;99.90;;;;;;5059814;28;20063;-67
2022/05/07 05:29:36;;;;;;;67.07;38.10;;;11.90;99.90;;;;;;5045381;28;20036;-67
2022/05/07 05:32:02;;;;;;;70.47;39.25;;;11.90;99.90;;;;;;5031834;28;21371;-67
2022/05/07 05:34:28;;;;;;;70.18;38.92;;;12.00;99.90;;;;;;5044165;28;20449;-67
2022/05/07 05:36:54;;;;;;;68.93;40.05;;;12.10;99.90;;;;;;5045759;28;20102;-67
2022/05/07 05:39:19;;;;;;;70.53;39.80;;;12.20;99.90;;;;;;5042792;28;20094;-67
2022/05/07 05:41:45;;;;;;;82.63;39.85;;;12.20;99.90;;;;;;5042153;28;20033;-67
2022/05/07 05:44:11;;;;;;;74.47;42.10;;;12.30;99.90;;;;;;5043311;28;20033;-67
2022/05/07 05:46:37;;;;;;;77.60;41.47;;;12.40;99.90;;;;;;5043953;28;20681;-67
2022/05/07 05:49:03;;;;;;;77.35;42.08;;;12.50;99.90;;;;;;5042060;28;20215;-67
2022/05/07 05:51:29;;;;;;;74.30;42.28;;;12.70;99.90;;;;;;5047814;28;20068;-68
2022/05/07 05:53:55;;;;;;;74.05;40.95;;;12.80;99.90;;;;;;5044531;28;20150;-67
2022/05/07 05:56:20;;;;;;;78.22;43.00;;;12.90;99.90;;;;;;5044085;28;20033;-67
2022/05/07 05:58:46;;;;;;;78.07;42.40;;;13.00;99.90;;;;;;5056456;28;20119;-67
2022/05/07 06:01:11;;;;;;;77.32;42.58;;;13.10;99.90;;;;;;5044667;28;20040;-67
2022/05/07 06:03:37;;;;;;;74.47;40.47;;;13.20;99.90;;;;;;5041725;28;20480;-67
2022/05/07 06:06:03;;;;;;;72.78;39.67;;;13.30;99.90;;;;;;5040363;28;20049;-67
2022/05/07 06:08:29;;;;;;;71.40;39.92;;;13.40;99.90;;;;;;5042528;28;20439;-67
2022/05/07 06:10:57;;;;;;;67.95;38.90;;;13.40;99.90;;;;;;5030400;28;20090;-67
2022/05/07 06:13:24;;;;;;;65.30;37.65;;;13.40;99.90;;;;;;5040416;28;20434;-67
2022/05/07 06:15:52;;;;;;;69.32;38.13;;;13.40;99.90;;;;;;5041457;28;20037;-67
2022/05/07 06:18:22;;;;;;;66.50;37.20;;;13.40;99.90;;;;;;5041902;28;20081;-67
2022/05/07 06:20:49;;;;;;;63.92;36.40;;;13.40;99.90;;;;;;5043392;28;20037;-67
2022/05/07 06:23:15;;;;;;;70.65;37.78;;;13.50;99.90;;;;;;5044273;28;20048;-67
2022/05/07 06:28:26;;;;;;;68.35;37.33;;;13.60;99.90;;;;;;5059260;28;20056;-67
2022/05/07 06:30:52;;;;;;;67.43;36.88;;;13.70;99.90;;;;;;5045041;28;20470;-67
2022/05/07 06:33:18;;;;;;;63.88;36.42;;;13.70;99.90;;;;;;5041338;28;20472;-68
2022/05/07 06:35:44;;;;;;;64.88;36.03;;;13.80;99.90;;;;;;5044578;28;20033;-67
2022/05/07 06:38:11;;;;;;;70.63;37.25;;;13.90;99.90;;;;;;5043630;28;20057;-67
2022/05/07 06:40:38;;;;;;;61.90;35.60;;;14.00;99.90;;;;;;5055323;28;20064;-67
2022/05/07 06:43:05;;;;;;;65.47;35.95;;;14.10;99.90;;;;;;5043282;28;20455;-68
2022/05/07 06:45:31;;;;;;;58.40;34.03;;;14.20;99.90;;;;;;5040655;28;20431;-68
2022/05/07 06:47:56;;;;;;;58.95;34.03;;;14.20;99.90;;;;;;5027446;28;20056;-68
2022/05/07 06:50:22;;;;;;;59.40;33.90;;;14.30;99.90;;;;;;5046343;28;20429;-67
2022/05/07 06:52:48;;;;;;;57.28;32.65;;;14.40;99.90;;;;;;5042389;28;20049;-68
2022/05/07 06:55:18;;;;;;;56.83;32.00;;;14.40;99.90;;;;;;5042431;28;20219;-68
2022/05/07 06:57:44;;;;;;;46.65;26.33;;;14.50;99.90;;;;;;5042371;28;20087;-68
2022/05/07 07:00:11;;;;;;;44.90;26.67;;;14.60;99.90;;;;;;5061360;28;20055;-68
2022/05/07 07:02:38;;;;;;;44.55;24.23;;;14.60;99.90;;;;;;5040581;28;20041;-68
2022/05/07 07:05:04;;;;;;;43.50;23.70;;;14.60;99.90;;;;;;5040231;28;20064;-69
2022/05/07 07:07:30;;;;;;;41.22;24.40;;;14.70;99.90;;;;;;5041983;28;20068;-69
2022/05/07 07:09:56;;;;;;;47.50;26.50;;;14.80;99.90;;;;;;5042692;28;20045;-70
2022/05/07 07:12:22;;;;;;;45.80;25.38;;;14.80;99.90;;;;;;5044491;28;20037;-69
2022/05/07 07:14:49;;;;;;;48.17;26.58;;;14.70;99.90;;;;;;5048649;28;20037;-69
2022/05/07 07:17:18;;;;;;;45.35;26.95;;;14.80;99.90;;;;;;5044018;28;20808;-68
2022/05/07 07:19:46;;;;;;;46.95;26.35;;;14.80;99.90;;;;;;5032772;28;20377;-68
2022/05/07 07:22:12;;;;;;;47.03;26.83;;;14.70;99.90;;;;;;5045852;28;20116;-67
2022/05/07 07:24:38;;;;;;;50.22;26.60;;;14.60;99.90;;;;;;5074379;28;20142;-69
2022/05/07 07:27:04;;;;;;;49.08;27.95;;;14.70;99.90;;;;;;5042819;28;20087;-68
2022/05/07 07:29:30;;;;;;;51.85;27.40;;;14.70;99.90;;;;;;5040405;28;20087;-68
2022/05/07 07:31:56;;;;;;;51.58;28.67;;;14.60;99.90;;;;;;5043105;28;20539;-69
2022/05/07 07:34:22;;;;;;;54.03;29.35;;;14.70;99.90;;;;;;5023350;28;20594;-68
2022/05/07 07:36:50;;;;;;;52.90;30.10;;;14.80;99.90;;;;;;5034752;28;20124;-68
2022/05/07 07:39:16;;;;;;;51.53;30.60;;;14.80;99.90;;;;;;5045567;28;20037;-68
2022/05/07 07:41:41;;;;;;;49.50;29.85;;;14.80;99.90;;;;;;5047150;28;20553;-68
2022/05/07 07:44:08;;;;;;;52.85;28.67;;;14.90;99.90;;;;;;5039266;28;20033;-69
2022/05/07 07:49:18;;;;;;;50.33;28.77;;;15.30;99.90;;;;;;5044020;28;20195;-68
2022/05/07 07:51:44;;;;;;;46.17;25.08;;;15.40;99.90;;;;;;5027128;28;20120;-70
2022/05/07 07:54:10;;;;;;;47.55;23.30;;;15.50;99.90;;;;;;5026489;28;20048;-68
2022/05/07 07:56:35;;;;;;;46.35;22.10;;;15.60;99.90;;;;;;5028237;28;20068;-70
2022/05/07 07:59:01;;;;;;;48.13;23.60;;;15.70;99.90;;;;;;5030030;28;20048;-69
2022/05/07 08:01:26;;;;;;;46.70;23.85;;;15.70;99.90;;;;;;5032390;28;20495;-69
2022/05/07 08:03:52;;;;;;;47.88;24.00;;;15.70;99.90;;;;;;5047379;28;20053;-69
2022/05/07 08:06:17;;;;;;;51.45;24.50;;;15.70;99.90;;;;;;5037959;28;20107;-68
2022/05/07 08:11:44;;;;;;;51.72;26.35;;;15.60;99.90;;;;;;5051472;28;20186;-68
2022/05/07 08:14:13;;;;;;;55.30;26.63;;;15.60;99.90;;;;;;5045978;28;20559;-68
2022/05/07 08:16:39;;;;;;;51.38;25.77;;;15.60;99.90;;;;;;5050544;28;20029;-69
2022/05/07 08:19:06;;;;;;;48.80;25.85;;;15.50;99.90;;;;;;5038401;28;20404;-69
2022/05/07 08:21:32;;;;;;;51.30;26.27;;;15.50;99.90;;;;;;5051539;28;20132;-68
2022/05/07 08:23:58;;;;;;;48.80;26.10;;;15.50;99.90;;;;;;5040201;28;20045;-69
2022/05/07 08:26:24;;;;;;;54.60;26.38;;;15.50;99.90;;;;;;5050763;28;20394;-68
2022/05/07 08:28:53;;;;;;;48.33;25.38;;;15.50;99.90;;;;;;5048444;28;20112;-68
2022/05/07 08:31:23;;;;;;;53.95;25.90;;;15.50;99.90;;;;;;5049829;28;20310;-68
2022/05/07 08:33:49;;;;;;;58.70;27.15;;;15.50;99.90;;;;;;5048066;28;20037;-68
2022/05/07 08:36:16;;;;;;;52.65;27.90;;;15.60;99.90;;;;;;5046918;28;20032;-69
2022/05/07 08:38:42;;;;;;;52.10;27.20;;;15.70;99.90;;;;;;5043316;28;20044;-68
2022/05/07 08:41:10;;;;;;;50.63;27.85;;;15.80;99.90;;;;;;5048714;28;20033;-68
2022/05/07 08:43:42;;;;;;;56.05;28.52;;;15.90;99.90;;;;;;5048287;28;20052;-69
2022/05/07 08:46:10;;;;;;;58.13;27.40;;;15.90;99.90;;;;;;5063821;28;20094;-69
2022/05/07 08:48:36;;;;;;;61.25;29.17;;;16.00;99.90;;;;;;5049928;28;20037;-68
2022/05/07 08:51:04;;;;;;;54.78;29.35;;;16.00;99.90;;;;;;5050878;28;20048;-69
2022/05/07 08:53:30;;;;;;;54.42;28.80;;;16.10;99.90;;;;;;5051193;28;20618;-69
2022/05/07 08:55:56;;;;;;;57.13;30.00;;;16.10;99.90;;;;;;5046979;28;20029;-68
2022/05/07 08:58:21;;;;;;;57.63;29.15;;;16.30;99.90;;;;;;5044265;28;20080;-70
2022/05/07 09:00:47;;;;;;;60.67;28.98;;;16.50;99.90;;;;;;5030303;28;20416;-69
2022/05/07 09:03:16;;;;;;;57.10;28.80;;;16.70;99.90;;;;;;5049337;28;20079;-69
2022/05/07 09:05:41;;;;;;;60.03;28.60;;;16.90;99.90;;;;;;5052035;28;20040;-68
2022/05/07 09:08:08;;;;;;;52.70;27.45;;;17.00;99.90;;;;;;5050610;28;20508;-68
2022/05/07 09:10:35;;;;;;;320.35;39.70;;;17.00;99.90;;;;;;5048403;28;20044;-68
2022/05/07 09:13:08;;;;;;;53.53;27.70;;;17.00;99.90;;;;;;5051011;28;20041;-69
2022/05/07 09:15:34;;;;;;;58.92;28.30;;;17.10;99.90;;;;;;5051200;28;20460;-69
2022/05/07 09:18:00;;;;;;;58.60;28.90;;;17.00;99.90;;;;;;5049737;28;20416;-68
2022/05/07 09:20:26;;;;;;;59.20;29.90;;;17.20;99.90;;;;;;5049443;28;20029;-68
2022/05/07 09:22:55;;;;;;;53.67;28.13;;;17.20;99.90;;;;;;5034300;28;20045;-69
2022/05/07 09:25:25;;;;;;;55.72;27.33;;;17.20;99.90;;;;;;5045683;28;20089;-69
2022/05/07 09:27:54;;;;;;;61.95;28.35;;;17.30;99.90;;;;;;5048548;28;20385;-69
2022/05/07 09:30:24;;;;;;;59.42;28.50;;;17.30;99.90;;;;;;5051807;28;20044;-69
2022/05/07 09:32:52;;;;;;;55.58;28.45;;;17.30;99.90;;;;;;5039329;28;20042;-69
2022/05/07 09:38:04;;;;;;;56.25;27.90;;;17.20;99.90;;;;;;5048417;28;20171;-68
2022/05/07 09:40:30;;;;;;;63.78;29.85;;;17.10;99.90;;;;;;5049107;28;20087;-69
2022/05/07 09:42:59;;;;;;;64.10;29.90;;;17.20;99.90;;;;;;5053106;28;20082;-69
2022/05/07 09:45:29;;;;;;;61.13;29.33;;;17.30;99.90;;;;;;5050380;28;20045;-69
2022/05/07 09:47:55;;;;;;;55.10;28.02;;;17.30;99.90;;;;;;5049787;28;20502;-68
2022/05/07 09:50:43;;;;;;;57.70;28.17;;;17.30;99.90;;;;;;5055224;28;20136;-68
2022/05/07 09:58:47;;;;;;;57.95;28.92;;;17.70;99.90;;;;;;5049568;28;20112;-68
2022/05/07 10:01:31;;;;;;;63.03;31.02;;;17.60;99.90;;;;;;5050434;28;20037;-68
2022/05/07 10:04:26;;;;;;;63.55;30.42;;;17.80;99.90;;;;;;5051511;28;20080;-68
2022/05/07 10:07:09;;;;;;;58.42;30.67;;;17.90;99.90;;;;;;5058211;28;20032;-69
2022/05/07 10:10:03;;;;;;;60.78;31.70;;;17.90;99.90;;;;;;5051875;28;20041;-69
2022/05/07 10:12:30;;;;;;;61.63;30.48;;;17.90;99.90;;;;;;5041171;28;20047;-69
2022/05/07 10:15:12;;;;;;;51.70;28.88;;;18.00;99.90;;;;;;5046983;28;20765;-69
2022/05/07 10:17:37;;;;;;;60.58;29.70;;;18.00;99.90;;;;;;5046886;28;20377;-68
2022/05/07 10:20:09;;;;;;;60.35;30.00;;;18.00;99.90;;;;;;5049272;28;20044;-68
2022/05/07 10:22:35;;;;;;;57.25;29.95;;;18.10;99.90;;;;;;5058428;28;20041;-69
2022/05/07 10:25:12;;;;;;;59.63;29.75;;;18.30;99.90;;;;;;5048729;28;20086;-70
2022/05/07 10:27:44;;;;;;;56.78;28.23;;;18.20;99.90;;;;;;5044710;28;20127;-76
2022/05/07 10:30:15;;;;;;;52.03;26.75;;;18.30;99.90;;;;;;5040630;28;20459;-70
2022/05/07 10:33:04;;;;;;;65.53;28.17;;;18.30;99.90;;;;;;5044481;28;20094;-69
2022/05/07 10:36:06;;;;;;;53.13;28.13;;;18.50;99.90;;;;;;5062870;28;20044;-71
2022/05/07 10:38:37;;;;;;;56.55;28.45;;;18.50;99.90;;;;;;5045340;28;20364;-70
2022/05/07 10:41:17;;;;;;;53.42;29.77;;;18.70;99.90;;;;;;5044228;28;20041;-68
2022/05/07 10:43:47;;;;;;;58.03;29.52;;;18.80;99.90;;;;;;5044554;28;20040;-70
2022/05/07 10:46:18;;;;;;;55.90;30.20;;;18.90;99.90;;;;;;5050574;28;20563;-70
2022/05/07 10:48:56;;;;;;;53.30;30.10;;;19.00;99.90;;;;;;5052087;28;20046;-69
2022/05/07 10:51:39;;;;;;;55.72;31.30;;;19.20;99.90;;;;;;5047775;28;20367;-69
2022/05/07 10:54:24;;;;;;;61.00;31.50;;;19.40;99.90;;;;;;5045331;28;20044;-70
2022/05/07 10:56:54;;;;;;;58.83;30.65;;;19.60;99.90;;;;;;5045965;28;20539;-70
2022/05/07 10:59:21;;;;;;;64.20;30.50;;;19.60;99.90;;;;;;5047297;28;20106;-71
2022/05/07 11:01:47;;;;;;;42.80;23.55;;;19.80;99.90;;;;;;5042146;28;20067;-69
2022/05/07 11:04:14;;;;;;;50.78;29.13;;;19.90;99.90;;;;;;5042687;28;20037;-70
2022/05/07 11:06:40;;;;;;;52.85;30.00;;;19.90;99.90;;;;;;5043896;28;20028;-71
2022/05/07 11:09:07;;;;;;;58.65;32.22;;;19.90;99.90;;;;;;5041344;28;20052;-68
2022/05/07 11:11:45;;;;;;;55.92;32.42;;;19.90;99.90;;;;;;5042273;28;20511;-68
2022/05/07 11:14:23;;;;;;;54.72;32.20;;;19.80;99.90;;;;;;5039540;28;20041;-69
2022/05/07 11:16:49;;;;;;;53.63;31.35;;;19.70;99.90;;;;;;5042607;28;20037;-70
2022/05/07 11:19:27;;;;;;;50.00;30.92;;;19.70;99.90;;;;;;5040322;28;20041;-72
2022/05/07 11:21:54;;;;;;;54.65;32.22;;;19.60;99.90;;;;;;5074880;28;20036;-70
2022/05/07 11:24:20;;;;;;;52.45;30.27;;;19.50;99.90;;;;;;5038659;28;20044;-68
2022/05/07 11:26:58;;;;;;;52.47;30.15;;;19.50;99.90;;;;;;5040696;28;20037;-70
2022/05/07 11:29:25;;;;;;;49.72;29.10;;;19.50;99.90;;;;;;5041026;28;20424;-69
2022/05/07 11:32:01;;;;;;;54.13;30.83;;;19.60;99.90;;;;;;5040578;28;20034;-69
2022/05/07 11:34:34;;;;;;;49.47;26.67;;;19.60;99.90;;;;;;5040557;28;20043;-69
2022/05/07 11:37:36;;;;;;;53.70;30.85;;;19.70;99.90;;;;;;5041049;28;20099;-69
2022/05/07 11:40:02;;;;;;;53.67;32.35;;;19.80;99.90;;;;;;5040468;28;20585;-71
2022/05/07 11:42:43;;;;;;;47.30;31.42;;;19.80;99.90;;;;;;5061026;28;20201;-70
2022/05/07 11:45:26;;;;;;;49.05;29.50;;;19.80;99.90;;;;;;5043914;28;20468;-68
2022/05/07 11:47:56;;;;;;;;;;;19.90;99.90;;;;;;5073740;28;20486;-68
2022/05/07 11:50:32;;;;;;;51.22;31.13;;;20.00;99.90;;;;;;5039338;28;20007;-71
2022/05/07 11:53:15;;;;;;;51.65;29.92;;;20.00;99.90;;;;;;5059080;28;20070;-71
2022/05/07 11:55:42;;;;;;;48.83;28.60;;;20.10;99.90;;;;;;5058279;28;20064;-70
2022/05/07 11:58:16;;;;;;;57.88;31.48;;;20.10;99.90;;;;;;5041298;28;20033;-69
2022/05/07 12:00:43;;;;;;;44.70;27.05;;;19.90;99.90;;;;;;5041018;28;20041;-68
2022/05/07 12:03:09;;;;;;;54.97;33.95;;;19.90;99.90;;;;;;5042564;28;20404;-68
2022/05/07 12:05:54;;;;;;;55.67;32.85;;;19.70;99.90;;;;;;5042378;28;20041;-71
2022/05/07 12:08:34;;;;;;;63.95;31.05;;;19.50;99.90;;;;;;5051847;28;20041;-69
2022/05/07 12:11:00;;;;;;;65.00;36.30;;;19.50;99.90;;;;;;5044571;28;20049;-70
2022/05/07 12:13:26;;;;;;;65.30;34.10;;;19.30;99.90;;;;;;5062177;28;20526;-71
2022/05/07 12:18:47;;;;;;;71.93;39.45;;;19.20;99.90;;;;;;5051028;28;20110;-68
2022/05/07 12:21:13;;;;;;;64.28;35.00;;;19.20;99.90;;;;;;5045488;28;20037;-72
2022/05/07 12:31:52;;;;;;;64.07;34.35;;;19.70;99.90;;;;;;5048003;28;20098;-70
2022/05/07 12:34:19;;;;;;;60.42;34.25;;;19.50;99.90;;;;;;5047044;28;20045;-68
2022/05/07 12:36:44;;;;;;;60.85;34.15;;;19.50;99.90;;;;;;5047217;28;20041;-71
2022/05/07 12:39:10;;;;;;;59.97;31.55;;;19.50;99.90;;;;;;5025816;28;20396;-69
2022/05/07 12:41:39;;;;;;;52.63;27.08;;;19.60;99.90;;;;;;5051294;28;20036;-72
2022/05/07 12:44:05;;;;;;;55.40;28.30;;;19.60;99.90;;;;;;5047051;28;20480;-70
2022/05/07 12:46:30;;;;;;;53.08;29.00;;;19.60;99.90;;;;;;5050087;28;20047;-70
2022/05/07 12:48:56;;;;;;;53.58;27.38;;;19.60;99.90;;;;;;5048761;28;20052;-72
2022/05/07 12:51:22;;;;;;;43.20;24.35;;;19.50;99.90;;;;;;5046161;28;20033;-70
2022/05/07 12:53:49;;;;;;;53.55;24.70;;;19.50;99.90;;;;;;5044083;28;20040;-69
2022/05/07 12:56:14;;;;;;;57.55;28.48;;;19.60;99.90;;;;;;5050121;28;20075;-70
2022/05/07 12:58:40;;;;;;;60.10;31.92;;;19.60;99.90;;;;;;5051185;28;20124;-70
2022/05/07 13:01:05;;;;;;;58.03;32.75;;;19.60;99.90;;;;;;5051231;28;20087;-73
2022/05/07 13:03:31;;;;;;;62.75;31.52;;;19.50;99.90;;;;;;5051046;28;20102;-76
2022/05/07 13:05:56;;;;;;;59.33;31.40;;;19.30;99.90;;;;;;5052425;28;20132;-77
2022/05/07 13:08:22;;;;;;;56.95;31.05;;;19.40;99.90;;;;;;5051019;28;20480;-74
2022/05/07 13:10:48;;;;;;;53.60;30.58;;;19.40;99.90;;;;;;5035966;28;20048;-72
2022/05/07 13:13:17;;;;;;;51.58;28.33;;;19.40;99.90;;;;;;5052952;28;20098;-77